sensor_id;sensor_type;location;lat;lon;timestamp;P1;durP1;ratioP1;P2;durP2;ratioP2
75837;SDS011;64480;52.040;113.502;2023-09-18T00:02:00;20.98;;;8.00;;
75837;SDS011;64480;52.040;113.502;2023-09-18T00:05:06;21.85;;;8.40;;
75837;SDS011;64480;52.040;113.502;2023-09-18T00:08:16;20.98;;;8.25;;
75837;SDS011;64480;52.040;113.502;2023-09-18T00:11:31;20.15;;;8.05;;
75837;SDS011;64480;52.040;113.502;2023-09-18T00:14:37;17.13;;;6.95;;
75837;SDS011;64480;52.040;113.502;2023-09-18T00:17:56;18.13;;;8.48;;
75837;SDS011;64480;52.040;113.502;2023-09-18T00:21:01;28.33;;;8.73;;
75837;SDS011;64480;52.040;113.502;2023-09-18T00:24:20;18.85;;;8.02;;
75837;SDS011;64480;52.040;113.502;2023-09-18T00:27:25;20.58;;;8.77;;
75837;SDS011;64480;52.040;113.502;2023-09-18T00:30:49;20.42;;;8.73;;
75837;SDS011;64480;52.040;113.502;2023-09-18T00:33:57;28.38;;;8.95;;
75837;SDS011;64480;52.040;113.502;2023-09-18T00:37:19;31.60;;;11.13;;
75837;SDS011;64480;52.040;113.502;2023-09-18T00:40:36;26.52;;;12.77;;
75837;SDS011;64480;52.040;113.502;2023-09-18T00:43:58;29.73;;;13.00;;
75837;SDS011;64480;52.040;113.502;2023-09-18T00:47:18;31.20;;;12.95;;
75837;SDS011;64480;52.040;113.502;2023-09-18T00:50:30;38.05;;;14.57;;
75837;SDS011;64480;52.040;113.502;2023-09-18T00:53:53;33.58;;;10.85;;
75837;SDS011;64480;52.040;113.502;2023-09-18T00:56:58;26.08;;;10.60;;
75837;SDS011;64480;52.040;113.502;2023-09-18T01:00:12;20.67;;;10.38;;
75837;SDS011;64480;52.040;113.502;2023-09-18T01:03:35;26.88;;;11.05;;
75837;SDS011;64480;52.040;113.502;2023-09-18T01:06:40;30.35;;;12.60;;
75837;SDS011;64480;52.040;113.502;2023-09-18T01:09:46;28.25;;;10.80;;
75837;SDS011;64480;52.040;113.502;2023-09-18T01:12:55;46.50;;;12.05;;
75837;SDS011;64480;52.040;113.502;2023-09-18T01:16:20;44.47;;;14.77;;
75837;SDS011;64480;52.040;113.502;2023-09-18T01:19:35;35.85;;;11.85;;
75837;SDS011;64480;52.040;113.502;2023-09-18T01:22:57;32.05;;;12.98;;
75837;SDS011;64480;52.040;113.502;2023-09-18T01:26:17;34.65;;;12.60;;
75837;SDS011;64480;52.040;113.502;2023-09-18T01:29:35;28.45;;;12.05;;
75837;SDS011;64480;52.040;113.502;2023-09-18T01:32:39;34.15;;;12.73;;
75837;SDS011;64480;52.040;113.502;2023-09-18T01:39:06;28.58;;;11.02;;
75837;SDS011;64480;52.040;113.502;2023-09-18T01:42:13;21.40;;;8.95;;
75837;SDS011;64480;52.040;113.502;2023-09-18T01:45:21;23.98;;;10.07;;
75837;SDS011;64480;52.040;113.502;2023-09-18T01:48:26;22.85;;;9.90;;
75837;SDS011;64480;52.040;113.502;2023-09-18T01:51:43;32.08;;;10.88;;
75837;SDS011;64480;52.040;113.502;2023-09-18T01:54:49;27.30;;;8.18;;
75837;SDS011;64480;52.040;113.502;2023-09-18T01:57:59;30.48;;;9.85;;
75837;SDS011;64480;52.040;113.502;2023-09-18T02:01:06;35.88;;;10.30;;
75837;SDS011;64480;52.040;113.502;2023-09-18T02:04:10;34.00;;;9.55;;
75837;SDS011;64480;52.040;113.502;2023-09-18T02:07:43;30.27;;;9.73;;
75837;SDS011;64480;52.040;113.502;2023-09-18T02:10:53;33.35;;;8.85;;
75837;SDS011;64480;52.040;113.502;2023-09-18T02:13:59;41.08;;;10.50;;
75837;SDS011;64480;52.040;113.502;2023-09-18T02:17:13;29.42;;;9.48;;
75837;SDS011;64480;52.040;113.502;2023-09-18T02:20:31;32.53;;;8.10;;
75837;SDS011;64480;52.040;113.502;2023-09-18T02:23:43;40.30;;;9.43;;
75837;SDS011;64480;52.040;113.502;2023-09-18T02:26:47;27.30;;;8.13;;
75837;SDS011;64480;52.040;113.502;2023-09-18T02:30:07;35.20;;;8.23;;
75837;SDS011;64480;52.040;113.502;2023-09-18T02:33:20;27.90;;;6.57;;
75837;SDS011;64480;52.040;113.502;2023-09-18T02:37:09;32.45;;;6.93;;
75837;SDS011;64480;52.040;113.502;2023-09-18T02:40:23;26.48;;;5.80;;
75837;SDS011;64480;52.040;113.502;2023-09-18T02:43:56;29.23;;;7.00;;
75837;SDS011;64480;52.040;113.502;2023-09-18T02:47:26;33.60;;;8.32;;
75837;SDS011;64480;52.040;113.502;2023-09-18T02:50:34;34.90;;;7.47;;
75837;SDS011;64480;52.040;113.502;2023-09-18T02:53:45;40.90;;;8.27;;
75837;SDS011;64480;52.040;113.502;2023-09-18T02:57:01;24.77;;;7.60;;
75837;SDS011;64480;52.040;113.502;2023-09-18T03:00:47;29.75;;;6.63;;
75837;SDS011;64480;52.040;113.502;2023-09-18T03:03:58;23.05;;;6.05;;
75837;SDS011;64480;52.040;113.502;2023-09-18T03:11:23;27.98;;;6.68;;
75837;SDS011;64480;52.040;113.502;2023-09-18T03:17:57;22.48;;;5.25;;
75837;SDS011;64480;52.040;113.502;2023-09-18T03:21:27;22.90;;;6.13;;
75837;SDS011;64480;52.040;113.502;2023-09-18T03:24:32;20.83;;;5.60;;
75837;SDS011;64480;52.040;113.502;2023-09-18T03:27:54;20.83;;;4.88;;
75837;SDS011;64480;52.040;113.502;2023-09-18T03:31:15;18.90;;;4.00;;
75837;SDS011;64480;52.040;113.502;2023-09-18T03:34:54;9.32;;;3.50;;
75837;SDS011;64480;52.040;113.502;2023-09-18T03:37:59;11.73;;;3.63;;
75837;SDS011;64480;52.040;113.502;2023-09-18T03:41:21;19.85;;;4.82;;
75837;SDS011;64480;52.040;113.502;2023-09-18T03:44:29;10.82;;;3.65;;
75837;SDS011;64480;52.040;113.502;2023-09-18T03:47:35;12.55;;;3.38;;
75837;SDS011;64480;52.040;113.502;2023-09-18T03:50:44;14.15;;;3.40;;
75837;SDS011;64480;52.040;113.502;2023-09-18T03:54:02;12.02;;;4.13;;
75837;SDS011;64480;52.040;113.502;2023-09-18T03:57:09;12.70;;;4.53;;
75837;SDS011;64480;52.040;113.502;2023-09-18T04:00:30;10.25;;;3.20;;
75837;SDS011;64480;52.040;113.502;2023-09-18T04:03:41;6.40;;;3.25;;
75837;SDS011;64480;52.040;113.502;2023-09-18T04:06:58;12.90;;;3.63;;
75837;SDS011;64480;52.040;113.502;2023-09-18T04:10:03;9.48;;;4.05;;
75837;SDS011;64480;52.040;113.502;2023-09-18T04:13:18;7.28;;;3.10;;
75837;SDS011;64480;52.040;113.502;2023-09-18T04:16:35;6.65;;;2.25;;
75837;SDS011;64480;52.040;113.502;2023-09-18T04:19:42;11.25;;;3.30;;
75837;SDS011;64480;52.040;113.502;2023-09-18T04:23:25;6.40;;;2.53;;
75837;SDS011;64480;52.040;113.502;2023-09-18T04:30:31;8.50;;;2.90;;
75837;SDS011;64480;52.040;113.502;2023-09-18T04:36:57;6.53;;;2.33;;
75837;SDS011;64480;52.040;113.502;2023-09-18T04:40:10;4.03;;;1.73;;
75837;SDS011;64480;52.040;113.502;2023-09-18T04:43:18;4.43;;;1.67;;
75837;SDS011;64480;52.040;113.502;2023-09-18T04:46:24;7.00;;;2.00;;
75837;SDS011;64480;52.040;113.502;2023-09-18T04:49:36;7.45;;;2.50;;
75837;SDS011;64480;52.040;113.502;2023-09-18T04:52:55;4.68;;;2.08;;
75837;SDS011;64480;52.040;113.502;2023-09-18T04:56:13;7.32;;;2.72;;
75837;SDS011;64480;52.040;113.502;2023-09-18T04:59:19;5.78;;;1.48;;
75837;SDS011;64480;52.040;113.502;2023-09-18T05:02:23;5.60;;;1.80;;
75837;SDS011;64480;52.040;113.502;2023-09-18T05:05:29;6.55;;;2.78;;
75837;SDS011;64480;52.040;113.502;2023-09-18T05:08:54;7.57;;;2.38;;
75837;SDS011;64480;52.040;113.502;2023-09-18T05:12:11;3.75;;;1.17;;
75837;SDS011;64480;52.040;113.502;2023-09-18T05:15:29;3.28;;;1.33;;
75837;SDS011;64480;52.040;113.502;2023-09-18T05:18:49;3.28;;;1.48;;
75837;SDS011;64480;52.040;113.502;2023-09-18T05:22:06;4.25;;;1.55;;
75837;SDS011;64480;52.040;113.502;2023-09-18T05:25:13;6.25;;;1.55;;
75837;SDS011;64480;52.040;113.502;2023-09-18T05:28:23;7.45;;;1.30;;
75837;SDS011;64480;52.040;113.502;2023-09-18T05:31:27;5.10;;;1.60;;
75837;SDS011;64480;52.040;113.502;2023-09-18T05:38:20;6.32;;;1.65;;
75837;SDS011;64480;52.040;113.502;2023-09-18T05:41:37;2.75;;;1.35;;
75837;SDS011;64480;52.040;113.502;2023-09-18T05:44:41;7.35;;;3.35;;
75837;SDS011;64480;52.040;113.502;2023-09-18T05:47:49;4.47;;;1.70;;
75837;SDS011;64480;52.040;113.502;2023-09-18T05:51:29;8.48;;;3.88;;
75837;SDS011;64480;52.040;113.502;2023-09-18T05:54:54;7.40;;;1.70;;
75837;SDS011;64480;52.040;113.502;2023-09-18T05:57:58;9.65;;;1.50;;
75837;SDS011;64480;52.040;113.502;2023-09-18T06:01:06;6.15;;;2.42;;
75837;SDS011;64480;52.040;113.502;2023-09-18T06:04:11;4.47;;;2.05;;
75837;SDS011;64480;52.040;113.502;2023-09-18T06:07:16;3.63;;;1.23;;
75837;SDS011;64480;52.040;113.502;2023-09-18T06:10:26;11.00;;;2.67;;
75837;SDS011;64480;52.040;113.502;2023-09-18T06:13:44;16.35;;;3.58;;
75837;SDS011;64480;52.040;113.502;2023-09-18T06:16:52;16.77;;;3.67;;
75837;SDS011;64480;52.040;113.502;2023-09-18T06:20:14;9.18;;;1.65;;
75837;SDS011;64480;52.040;113.502;2023-09-18T06:23:22;5.07;;;2.85;;
75837;SDS011;64480;52.040;113.502;2023-09-18T06:26:31;6.78;;;2.03;;
75837;SDS011;64480;52.040;113.502;2023-09-18T06:29:41;11.30;;;2.80;;
75837;SDS011;64480;52.040;113.502;2023-09-18T06:32:54;6.70;;;2.28;;
75837;SDS011;64480;52.040;113.502;2023-09-18T06:36:11;9.48;;;2.00;;
75837;SDS011;64480;52.040;113.502;2023-09-18T06:39:16;6.57;;;1.80;;
75837;SDS011;64480;52.040;113.502;2023-09-18T06:42:32;6.22;;;1.02;;
75837;SDS011;64480;52.040;113.502;2023-09-18T06:45:46;9.68;;;4.30;;
75837;SDS011;64480;52.040;113.502;2023-09-18T06:48:53;5.63;;;1.88;;
75837;SDS011;64480;52.040;113.502;2023-09-18T06:52:10;6.47;;;2.53;;
75837;SDS011;64480;52.040;113.502;2023-09-18T06:55:17;7.60;;;2.53;;
75837;SDS011;64480;52.040;113.502;2023-09-18T06:58:38;5.30;;;1.80;;
75837;SDS011;64480;52.040;113.502;2023-09-18T07:01:44;4.80;;;2.10;;
75837;SDS011;64480;52.040;113.502;2023-09-18T07:05:03;5.80;;;1.70;;
75837;SDS011;64480;52.040;113.502;2023-09-18T07:08:20;5.25;;;1.65;;
75837;SDS011;64480;52.040;113.502;2023-09-18T07:11:30;9.27;;;2.40;;
75837;SDS011;64480;52.040;113.502;2023-09-18T07:14:51;16.38;;;6.43;;
75837;SDS011;64480;52.040;113.502;2023-09-18T07:17:59;8.43;;;1.83;;
75837;SDS011;64480;52.040;113.502;2023-09-18T07:21:10;6.95;;;1.38;;
75837;SDS011;64480;52.040;113.502;2023-09-18T07:24:14;8.60;;;2.00;;
75837;SDS011;64480;52.040;113.502;2023-09-18T07:27:19;6.65;;;4.18;;
75837;SDS011;64480;52.040;113.502;2023-09-18T07:30:30;3.95;;;1.52;;
75837;SDS011;64480;52.040;113.502;2023-09-18T07:33:46;11.43;;;2.30;;
75837;SDS011;64480;52.040;113.502;2023-09-18T07:37:04;7.00;;;1.83;;
75837;SDS011;64480;52.040;113.502;2023-09-18T07:40:09;9.63;;;3.80;;
75837;SDS011;64480;52.040;113.502;2023-09-18T07:43:16;6.45;;;1.50;;
75837;SDS011;64480;52.040;113.502;2023-09-18T07:46:30;6.90;;;1.80;;
75837;SDS011;64480;52.040;113.502;2023-09-18T07:49:50;6.13;;;1.80;;
75837;SDS011;64480;52.040;113.502;2023-09-18T07:53:07;10.32;;;2.40;;
75837;SDS011;64480;52.040;113.502;2023-09-18T07:56:16;4.30;;;1.42;;
75837;SDS011;64480;52.040;113.502;2023-09-18T08:07:14;2.33;;;1.50;;
75837;SDS011;64480;52.040;113.502;2023-09-18T08:11:06;5.82;;;1.63;;
75837;SDS011;64480;52.040;113.502;2023-09-18T08:14:26;3.58;;;1.70;;
75837;SDS011;64480;52.040;113.502;2023-09-18T08:17:54;3.30;;;1.50;;
75837;SDS011;64480;52.040;113.502;2023-09-18T08:24:05;4.63;;;1.27;;
75837;SDS011;64480;52.040;113.502;2023-09-18T08:27:23;9.35;;;3.47;;
75837;SDS011;64480;52.040;113.502;2023-09-18T08:30:29;3.65;;;1.75;;
75837;SDS011;64480;52.040;113.502;2023-09-18T08:33:37;5.93;;;2.63;;
75837;SDS011;64480;52.040;113.502;2023-09-18T08:36:44;4.35;;;1.45;;
75837;SDS011;64480;52.040;113.502;2023-09-18T08:39:55;2.28;;;1.20;;
75837;SDS011;64480;52.040;113.502;2023-09-18T08:43:12;5.47;;;2.80;;
75837;SDS011;64480;52.040;113.502;2023-09-18T08:46:19;3.28;;;1.23;;
75837;SDS011;64480;52.040;113.502;2023-09-18T08:49:38;4.30;;;1.50;;
75837;SDS011;64480;52.040;113.502;2023-09-18T08:52:55;5.07;;;1.95;;
75837;SDS011;64480;52.040;113.502;2023-09-18T08:56:08;6.80;;;1.50;;
75837;SDS011;64480;52.040;113.502;2023-09-18T08:59:14;6.47;;;2.70;;
75837;SDS011;64480;52.040;113.502;2023-09-18T09:02:36;3.97;;;1.48;;
75837;SDS011;64480;52.040;113.502;2023-09-18T09:05:53;4.72;;;1.50;;
75837;SDS011;64480;52.040;113.502;2023-09-18T09:09:18;4.85;;;1.42;;
75837;SDS011;64480;52.040;113.502;2023-09-18T09:12:49;12.50;;;2.05;;
75837;SDS011;64480;52.040;113.502;2023-09-18T09:16:15;6.55;;;2.10;;
75837;SDS011;64480;52.040;113.502;2023-09-18T09:19:32;6.13;;;2.05;;
75837;SDS011;64480;52.040;113.502;2023-09-18T09:23:01;6.78;;;2.03;;
75837;SDS011;64480;52.040;113.502;2023-09-18T09:26:24;17.38;;;7.55;;
75837;SDS011;64480;52.040;113.502;2023-09-18T09:29:57;8.70;;;3.33;;
75837;SDS011;64480;52.040;113.502;2023-09-18T09:33:16;10.23;;;2.65;;
75837;SDS011;64480;52.040;113.502;2023-09-18T09:36:22;3.65;;;1.88;;
75837;SDS011;64480;52.040;113.502;2023-09-18T09:39:53;6.93;;;2.30;;
75837;SDS011;64480;52.040;113.502;2023-09-18T09:43:13;7.22;;;2.78;;
75837;SDS011;64480;52.040;113.502;2023-09-18T09:46:18;14.73;;;5.10;;
75837;SDS011;64480;52.040;113.502;2023-09-18T09:49:47;15.43;;;4.13;;
75837;SDS011;64480;52.040;113.502;2023-09-18T09:53:03;7.32;;;3.28;;
75837;SDS011;64480;52.040;113.502;2023-09-18T09:56:20;7.50;;;3.60;;
75837;SDS011;64480;52.040;113.502;2023-09-18T10:02:33;7.85;;;2.45;;
75837;SDS011;64480;52.040;113.502;2023-09-18T10:05:40;6.65;;;2.65;;
75837;SDS011;64480;52.040;113.502;2023-09-18T10:08:45;7.03;;;3.72;;
75837;SDS011;64480;52.040;113.502;2023-09-18T10:11:55;13.32;;;4.03;;
75837;SDS011;64480;52.040;113.502;2023-09-18T10:15:02;5.20;;;2.55;;
75837;SDS011;64480;52.040;113.502;2023-09-18T10:18:42;3.78;;;2.25;;
75837;SDS011;64480;52.040;113.502;2023-09-18T10:22:05;8.02;;;2.83;;
75837;SDS011;64480;52.040;113.502;2023-09-18T10:28:39;18.52;;;4.80;;
75837;SDS011;64480;52.040;113.502;2023-09-18T10:31:58;12.35;;;3.70;;
75837;SDS011;64480;52.040;113.502;2023-09-18T10:35:04;7.20;;;2.75;;
75837;SDS011;64480;52.040;113.502;2023-09-18T10:41:25;11.10;;;3.45;;
75837;SDS011;64480;52.040;113.502;2023-09-18T10:44:42;20.88;;;5.05;;
75837;SDS011;64480;52.040;113.502;2023-09-18T10:48:01;16.05;;;4.10;;
75837;SDS011;64480;52.040;113.502;2023-09-18T10:51:18;11.98;;;3.45;;
75837;SDS011;64480;52.040;113.502;2023-09-18T10:54:27;11.73;;;4.10;;
75837;SDS011;64480;52.040;113.502;2023-09-18T10:57:53;10.35;;;3.40;;
75837;SDS011;64480;52.040;113.502;2023-09-18T11:01:02;23.08;;;4.25;;
75837;SDS011;64480;52.040;113.502;2023-09-18T11:04:13;14.40;;;4.05;;
75837;SDS011;64480;52.040;113.502;2023-09-18T11:07:23;10.35;;;3.38;;
75837;SDS011;64480;52.040;113.502;2023-09-18T11:10:30;16.30;;;5.15;;
75837;SDS011;64480;52.040;113.502;2023-09-18T11:13:50;14.82;;;5.03;;
75837;SDS011;64480;52.040;113.502;2023-09-18T11:20:25;10.90;;;3.85;;
75837;SDS011;64480;52.040;113.502;2023-09-18T11:23:43;13.02;;;4.78;;
75837;SDS011;64480;52.040;113.502;2023-09-18T11:26:48;14.93;;;5.85;;
75837;SDS011;64480;52.040;113.502;2023-09-18T11:29:57;17.70;;;5.25;;
75837;SDS011;64480;52.040;113.502;2023-09-18T11:33:03;21.20;;;6.78;;
75837;SDS011;64480;52.040;113.502;2023-09-18T11:39:32;23.80;;;5.63;;
75837;SDS011;64480;52.040;113.502;2023-09-18T11:43:10;20.30;;;5.82;;
75837;SDS011;64480;52.040;113.502;2023-09-18T11:46:52;10.25;;;5.85;;
75837;SDS011;64480;52.040;113.502;2023-09-18T11:50:00;19.10;;;5.43;;
75837;SDS011;64480;52.040;113.502;2023-09-18T11:53:11;19.13;;;6.38;;
75837;SDS011;64480;52.040;113.502;2023-09-18T11:56:19;19.95;;;6.07;;
75837;SDS011;64480;52.040;113.502;2023-09-18T11:59:39;17.98;;;7.05;;
75837;SDS011;64480;52.040;113.502;2023-09-18T12:02:53;27.17;;;7.40;;
75837;SDS011;64480;52.040;113.502;2023-09-18T12:06:01;20.30;;;8.70;;
75837;SDS011;64480;52.040;113.502;2023-09-18T12:09:29;24.50;;;10.02;;
75837;SDS011;64480;52.040;113.502;2023-09-18T12:12:35;23.95;;;8.98;;
75837;SDS011;64480;52.040;113.502;2023-09-18T12:15:56;20.30;;;8.55;;
75837;SDS011;64480;52.040;113.502;2023-09-18T12:19:22;24.38;;;8.52;;
75837;SDS011;64480;52.040;113.502;2023-09-18T12:22:28;25.70;;;10.02;;
75837;SDS011;64480;52.040;113.502;2023-09-18T12:25:35;28.70;;;10.20;;
75837;SDS011;64480;52.040;113.502;2023-09-18T12:28:42;25.65;;;9.32;;
75837;SDS011;64480;52.040;113.502;2023-09-18T12:31:57;23.33;;;9.35;;
75837;SDS011;64480;52.040;113.502;2023-09-18T12:35:16;21.20;;;7.70;;
75837;SDS011;64480;52.040;113.502;2023-09-18T12:38:37;15.75;;;7.18;;
75837;SDS011;64480;52.040;113.502;2023-09-18T12:41:53;25.38;;;8.82;;
75837;SDS011;64480;52.040;113.502;2023-09-18T12:45:02;22.95;;;8.32;;
75837;SDS011;64480;52.040;113.502;2023-09-18T12:48:09;20.40;;;7.93;;
75837;SDS011;64480;52.040;113.502;2023-09-18T12:51:13;23.30;;;8.38;;
75837;SDS011;64480;52.040;113.502;2023-09-18T12:57:45;24.38;;;8.63;;
75837;SDS011;64480;52.040;113.502;2023-09-18T13:00:49;24.42;;;8.48;;
75837;SDS011;64480;52.040;113.502;2023-09-18T13:03:54;16.85;;;7.03;;
75837;SDS011;64480;52.040;113.502;2023-09-18T13:07:06;15.50;;;6.10;;
75837;SDS011;64480;52.040;113.502;2023-09-18T13:10:13;16.60;;;5.70;;
75837;SDS011;64480;52.040;113.502;2023-09-18T13:13:20;19.42;;;6.15;;
75837;SDS011;64480;52.040;113.502;2023-09-18T13:16:39;17.13;;;6.25;;
75837;SDS011;64480;52.040;113.502;2023-09-18T13:19:58;18.25;;;7.35;;
75837;SDS011;64480;52.040;113.502;2023-09-18T13:23:02;17.77;;;6.80;;
75837;SDS011;64480;52.040;113.502;2023-09-18T13:26:07;17.65;;;7.47;;
75837;SDS011;64480;52.040;113.502;2023-09-18T13:29:22;24.35;;;7.47;;
75837;SDS011;64480;52.040;113.502;2023-09-18T13:32:33;17.83;;;7.35;;
75837;SDS011;64480;52.040;113.502;2023-09-18T13:35:43;20.25;;;7.32;;
75837;SDS011;64480;52.040;113.502;2023-09-18T13:38:52;17.65;;;6.80;;
75837;SDS011;64480;52.040;113.502;2023-09-18T13:41:57;21.35;;;7.82;;
75837;SDS011;64480;52.040;113.502;2023-09-18T13:45:15;19.27;;;6.95;;
75837;SDS011;64480;52.040;113.502;2023-09-18T13:48:32;13.55;;;6.78;;
75837;SDS011;64480;52.040;113.502;2023-09-18T13:51:36;19.08;;;7.32;;
75837;SDS011;64480;52.040;113.502;2023-09-18T13:54:40;15.18;;;7.28;;
75837;SDS011;64480;52.040;113.502;2023-09-18T13:58:01;11.90;;;6.00;;
75837;SDS011;64480;52.040;113.502;2023-09-18T14:01:09;19.95;;;6.75;;
75837;SDS011;64480;52.040;113.502;2023-09-18T14:04:12;16.33;;;5.90;;
75837;SDS011;64480;52.040;113.502;2023-09-18T14:07:16;21.30;;;6.72;;
75837;SDS011;64480;52.040;113.502;2023-09-18T14:10:20;18.00;;;6.85;;
75837;SDS011;64480;52.040;113.502;2023-09-18T14:13:25;14.73;;;6.45;;
75837;SDS011;64480;52.040;113.502;2023-09-18T14:16:28;14.52;;;5.97;;
75837;SDS011;64480;52.040;113.502;2023-09-18T14:19:33;18.63;;;6.30;;
75837;SDS011;64480;52.040;113.502;2023-09-18T14:22:36;13.93;;;5.15;;
75837;SDS011;64480;52.040;113.502;2023-09-18T14:25:40;11.60;;;6.00;;
75837;SDS011;64480;52.040;113.502;2023-09-18T14:28:46;11.93;;;5.07;;
75837;SDS011;64480;52.040;113.502;2023-09-18T14:31:51;18.55;;;6.68;;
75837;SDS011;64480;52.040;113.502;2023-09-18T14:34:56;22.38;;;7.75;;
75837;SDS011;64480;52.040;113.502;2023-09-18T14:38:02;22.23;;;8.93;;
75837;SDS011;64480;52.040;113.502;2023-09-18T14:41:13;20.17;;;9.57;;
75837;SDS011;64480;52.040;113.502;2023-09-18T14:44:25;30.02;;;10.43;;
75837;SDS011;64480;52.040;113.502;2023-09-18T14:47:38;30.05;;;10.98;;
75837;SDS011;64480;52.040;113.502;2023-09-18T14:50:44;32.15;;;12.60;;
75837;SDS011;64480;52.040;113.502;2023-09-18T14:53:50;34.80;;;12.35;;
75837;SDS011;64480;52.040;113.502;2023-09-18T14:56:55;27.48;;;12.82;;
75837;SDS011;64480;52.040;113.502;2023-09-18T14:59:59;20.80;;;7.53;;
75837;SDS011;64480;52.040;113.502;2023-09-18T15:03:04;21.90;;;9.85;;
75837;SDS011;64480;52.040;113.502;2023-09-18T15:06:12;17.38;;;6.72;;
75837;SDS011;64480;52.040;113.502;2023-09-18T15:09:23;15.18;;;5.72;;
75837;SDS011;64480;52.040;113.502;2023-09-18T15:12:27;24.10;;;7.10;;
75837;SDS011;64480;52.040;113.502;2023-09-18T15:15:33;16.23;;;6.55;;
75837;SDS011;64480;52.040;113.502;2023-09-18T15:18:38;26.58;;;8.27;;
75837;SDS011;64480;52.040;113.502;2023-09-18T15:21:43;20.48;;;7.50;;
75837;SDS011;64480;52.040;113.502;2023-09-18T15:24:47;22.23;;;9.23;;
75837;SDS011;64480;52.040;113.502;2023-09-18T15:27:53;25.10;;;9.55;;
75837;SDS011;64480;52.040;113.502;2023-09-18T15:30:58;24.40;;;8.85;;
75837;SDS011;64480;52.040;113.502;2023-09-18T15:34:03;28.17;;;11.07;;
75837;SDS011;64480;52.040;113.502;2023-09-18T15:37:10;25.63;;;11.55;;
75837;SDS011;64480;52.040;113.502;2023-09-18T15:40:16;38.58;;;13.93;;
75837;SDS011;64480;52.040;113.502;2023-09-18T15:43:21;29.73;;;13.38;;
75837;SDS011;64480;52.040;113.502;2023-09-18T15:46:25;33.53;;;13.98;;
75837;SDS011;64480;52.040;113.502;2023-09-18T15:49:29;29.58;;;12.77;;
75837;SDS011;64480;52.040;113.502;2023-09-18T15:52:35;36.63;;;14.23;;
75837;SDS011;64480;52.040;113.502;2023-09-18T15:55:40;37.75;;;12.75;;
75837;SDS011;64480;52.040;113.502;2023-09-18T15:58:44;29.08;;;11.13;;
75837;SDS011;64480;52.040;113.502;2023-09-18T16:01:48;26.77;;;11.50;;
75837;SDS011;64480;52.040;113.502;2023-09-18T16:04:52;31.55;;;10.88;;
75837;SDS011;64480;52.040;113.502;2023-09-18T16:07:57;27.33;;;11.85;;
75837;SDS011;64480;52.040;113.502;2023-09-18T16:11:08;10.68;;;5.00;;
75837;SDS011;64480;52.040;113.502;2023-09-18T16:14:12;13.27;;;5.82;;
75837;SDS011;64480;52.040;113.502;2023-09-18T16:17:16;22.88;;;7.55;;
75837;SDS011;64480;52.040;113.502;2023-09-18T16:20:21;16.33;;;7.97;;
75837;SDS011;64480;52.040;113.502;2023-09-18T16:23:26;19.52;;;9.32;;
75837;SDS011;64480;52.040;113.502;2023-09-18T16:26:30;28.75;;;10.85;;
75837;SDS011;64480;52.040;113.502;2023-09-18T16:29:35;29.45;;;11.80;;
75837;SDS011;64480;52.040;113.502;2023-09-18T16:32:43;21.02;;;10.40;;
75837;SDS011;64480;52.040;113.502;2023-09-18T16:35:47;22.83;;;10.00;;
75837;SDS011;64480;52.040;113.502;2023-09-18T16:38:53;26.65;;;10.75;;
75837;SDS011;64480;52.040;113.502;2023-09-18T16:41:57;33.30;;;12.75;;
75837;SDS011;64480;52.040;113.502;2023-09-18T16:45:01;28.45;;;11.48;;
75837;SDS011;64480;52.040;113.502;2023-09-18T16:48:07;34.67;;;12.60;;
75837;SDS011;64480;52.040;113.502;2023-09-18T16:51:12;29.38;;;11.60;;
75837;SDS011;64480;52.040;113.502;2023-09-18T16:54:18;29.30;;;12.13;;
75837;SDS011;64480;52.040;113.502;2023-09-18T16:57:23;27.38;;;12.07;;
75837;SDS011;64480;52.040;113.502;2023-09-18T17:00:28;27.02;;;13.27;;
75837;SDS011;64480;52.040;113.502;2023-09-18T17:03:32;31.58;;;11.77;;
75837;SDS011;64480;52.040;113.502;2023-09-18T17:06:36;36.17;;;11.90;;
75837;SDS011;64480;52.040;113.502;2023-09-18T17:09:41;26.00;;;10.55;;
75837;SDS011;64480;52.040;113.502;2023-09-18T17:12:59;26.10;;;9.95;;
75837;SDS011;64480;52.040;113.502;2023-09-18T17:16:05;27.92;;;9.73;;
75837;SDS011;64480;52.040;113.502;2023-09-18T17:19:14;22.80;;;10.40;;
75837;SDS011;64480;52.040;113.502;2023-09-18T17:22:18;21.98;;;9.23;;
75837;SDS011;64480;52.040;113.502;2023-09-18T17:25:23;16.35;;;7.47;;
75837;SDS011;64480;52.040;113.502;2023-09-18T17:28:28;20.55;;;7.85;;
75837;SDS011;64480;52.040;113.502;2023-09-18T17:31:47;14.77;;;6.50;;
75837;SDS011;64480;52.040;113.502;2023-09-18T17:34:53;14.43;;;6.53;;
75837;SDS011;64480;52.040;113.502;2023-09-18T17:38:09;16.65;;;6.97;;
75837;SDS011;64480;52.040;113.502;2023-09-18T17:41:17;15.77;;;7.28;;
75837;SDS011;64480;52.040;113.502;2023-09-18T17:44:24;20.85;;;7.13;;
75837;SDS011;64480;52.040;113.502;2023-09-18T17:47:27;22.95;;;7.85;;
75837;SDS011;64480;52.040;113.502;2023-09-18T17:50:32;18.25;;;7.22;;
75837;SDS011;64480;52.040;113.502;2023-09-18T17:53:37;22.92;;;7.22;;
75837;SDS011;64480;52.040;113.502;2023-09-18T17:56:41;18.42;;;8.32;;
75837;SDS011;64480;52.040;113.502;2023-09-18T17:59:53;21.45;;;8.27;;
75837;SDS011;64480;52.040;113.502;2023-09-18T18:02:57;16.27;;;7.63;;
75837;SDS011;64480;52.040;113.502;2023-09-18T18:06:02;23.67;;;7.90;;
75837;SDS011;64480;52.040;113.502;2023-09-18T18:09:12;20.33;;;7.10;;
75837;SDS011;64480;52.040;113.502;2023-09-18T18:12:17;16.35;;;7.85;;
75837;SDS011;64480;52.040;113.502;2023-09-18T18:15:22;19.70;;;7.00;;
75837;SDS011;64480;52.040;113.502;2023-09-18T18:18:26;18.50;;;7.75;;
75837;SDS011;64480;52.040;113.502;2023-09-18T18:21:29;14.80;;;6.93;;
75837;SDS011;64480;52.040;113.502;2023-09-18T18:24:33;18.45;;;7.32;;
75837;SDS011;64480;52.040;113.502;2023-09-18T18:27:38;17.15;;;7.72;;
75837;SDS011;64480;52.040;113.502;2023-09-18T18:30:42;17.73;;;7.43;;
75837;SDS011;64480;52.040;113.502;2023-09-18T18:33:46;16.40;;;6.45;;
75837;SDS011;64480;52.040;113.502;2023-09-18T18:36:51;21.00;;;6.22;;
75837;SDS011;64480;52.040;113.502;2023-09-18T18:39:55;24.77;;;9.23;;
75837;SDS011;64480;52.040;113.502;2023-09-18T18:42:58;22.33;;;8.75;;
75837;SDS011;64480;52.040;113.502;2023-09-18T18:46:04;20.80;;;8.07;;
75837;SDS011;64480;52.040;113.502;2023-09-18T18:49:10;15.52;;;5.60;;
75837;SDS011;64480;52.040;113.502;2023-09-18T18:52:13;15.88;;;6.25;;
75837;SDS011;64480;52.040;113.502;2023-09-18T18:55:18;17.40;;;6.03;;
75837;SDS011;64480;52.040;113.502;2023-09-18T18:58:22;16.67;;;6.82;;
75837;SDS011;64480;52.040;113.502;2023-09-18T19:01:27;29.65;;;10.80;;
75837;SDS011;64480;52.040;113.502;2023-09-18T19:04:32;25.67;;;11.27;;
75837;SDS011;64480;52.040;113.502;2023-09-18T19:07:38;27.65;;;11.68;;
75837;SDS011;64480;52.040;113.502;2023-09-18T19:10:42;25.27;;;9.68;;
75837;SDS011;64480;52.040;113.502;2023-09-18T19:13:46;20.52;;;7.80;;
75837;SDS011;64480;52.040;113.502;2023-09-18T19:16:49;27.65;;;10.68;;
75837;SDS011;64480;52.040;113.502;2023-09-18T19:19:54;28.48;;;10.70;;